Time;durP1;ratioP1;P1;durP2;ratioP2;P2;SDS_P1;SDS_P2;PMS_P1;PMS_P2;Temp;Humidity;BMP_temperature;BMP_pressure;BME280_temperature;BME280_humidity;BME280_pressure;Samples;Min_cycle;Max_cycle;Signal;HPM_P1;HPM_P2
2022/10/19 00:05:20;;;;;;;10.35;6.72;;;;;;;22.68;53.28;100929.38;20910003;28;20055;-76
2022/10/19 00:15:21;;;;;;;9.18;6.90;;;;;;;22.67;53.34;100915.31;20915691;28;20056;-76
2022/10/19 00:25:21;;;;;;;8.40;6.30;;;;;;;22.66;53.31;100899.59;20902883;28;20037;-76
2022/10/19 00:35:21;;;;;;;9.32;6.65;;;;;;;22.63;53.26;100887.47;20903218;28;20052;-75
2022/10/19 00:45:22;;;;;;;10.75;6.60;;;;;;;22.63;53.53;100869.00;20905689;28;20067;-75
2022/10/19 00:55:23;;;;;;;9.13;6.60;;;;;;;22.61;53.34;100864.81;20898364;28;20079;-75
2022/10/19 01:05:25;;;;;;;8.63;6.20;;;;;;;22.62;53.33;100859.41;20900159;28;20124;-75
2022/10/19 01:16:00;;;;;;;10.27;6.10;;;;;;;22.60;53.29;100850.75;20900958;28;20444;-75
2022/10/19 01:26:36;;;;;;;7.78;6.22;;;;;;;22.59;53.38;100829.75;20903944;27;20049;-75
2022/10/19 01:36:36;;;;;;;8.75;6.70;;;;;;;22.60;53.44;100815.59;20885986;27;20052;-75
2022/10/19 01:46:40;;;;;;;9.48;6.55;;;;;;;22.58;53.38;100805.16;20896659;28;20056;-75
2022/10/19 01:56:43;;;;;;;11.48;6.32;;;;;;;22.58;53.22;100822.78;20891546;28;20045;-76
2022/10/19 02:06:44;;;;;;;10.25;6.60;;;;;;;22.55;53.54;100811.50;20900999;28;20080;-75
2022/10/19 02:16:50;;;;;;;8.13;6.50;;;;;;;22.54;53.59;100804.56;20898370;28;20045;-75
2022/10/19 02:26:52;;;;;;;7.45;6.10;;;;;;;22.53;53.48;100809.94;20888328;27;20044;-76
2022/10/19 02:36:53;;;;;;;7.20;6.00;;;;;;;22.54;53.66;100814.28;20887026;28;20056;-75
2022/10/19 02:47:00;;;;;;;8.43;6.35;;;;;;;22.52;53.55;100805.63;20907502;28;20452;-76
2022/10/19 02:57:08;;;;;;;6.88;5.65;;;;;;;22.51;53.82;100798.69;20888501;27;20105;-75
2022/10/19 03:07:10;;;;;;;8.85;6.20;;;;;;;22.51;53.67;100812.72;20891481;28;20132;-75
2022/10/19 03:17:11;;;;;;;7.20;6.00;;;;;;;22.51;53.93;100833.00;20890871;28;20052;-75
2022/10/19 03:27:11;;;;;;;9.20;6.60;;;;;;;22.48;53.80;100804.19;20904911;27;20036;-75
2022/10/19 03:37:14;;;;;;;8.98;6.40;;;;;;;22.49;53.62;100803.22;20884683;27;20530;-75
2022/10/19 03:47:15;;;;;;;8.95;6.20;;;;;;;22.48;53.85;100817.38;20891460;27;20041;-75
2022/10/19 03:57:15;;;;;;;8.68;5.65;;;;;;;22.45;53.82;100807.03;20887840;28;20106;-74
2022/10/19 04:07:16;;;;;;;9.50;6.28;;;;;;;22.46;53.63;100803.44;20894320;27;20086;-75
2022/10/19 04:17:16;;;;;;;13.40;6.05;;;;;;;22.47;54.37;100807.78;20899958;28;20100;-78
2022/10/19 04:27:16;;;;;;;14.40;6.03;;;;;;;22.52;55.37;100808.25;20902259;28;20048;-81
2022/10/19 04:37:18;;;;;;;14.65;5.97;;;;;;;22.55;55.38;100808.88;20900306;28;20116;-79
2022/10/19 04:47:18;;;;;;;20.30;7.35;;;;;;;22.57;55.57;100795.56;20920717;28;20451;-79
2022/10/19 04:57:19;;;;;;;23.88;8.30;;;;;;;22.58;55.43;100804.31;20918009;28;20047;-78
2022/10/19 05:07:19;;;;;;;29.42;9.07;;;;;;;22.56;53.82;100804.44;20894831;28;20051;-78
2022/10/19 05:17:19;;;;;;;24.70;8.70;;;;;;;22.57;53.96;100818.47;20916547;28;20041;-79
2022/10/19 05:27:21;;;;;;;23.88;9.52;;;;;;;22.36;49.64;100834.94;20918424;28;20119;-78
2022/10/19 05:37:21;;;;;;;19.05;9.48;;;;;;;22.46;52.91;100845.66;20897189;28;21220;-78
2022/10/19 05:47:21;;;;;;;18.05;8.38;;;;;;;22.47;52.69;100844.72;20916628;27;20032;-78
2022/10/19 05:57:22;;;;;;;23.60;8.65;;;;;;;22.44;52.73;100856.34;20932643;28;20052;-79
2022/10/19 06:07:24;;;;;;;17.63;8.35;;;;;;;22.34;51.10;100865.91;20901632;28;20053;-77
2022/10/19 06:17:27;;;;;;;17.15;8.30;;;;;;;22.29;48.98;100876.78;20879424;28;20490;-78
2022/10/19 06:27:30;;;;;;;18.77;9.10;;;;;;;22.36;51.45;100885.94;20894339;28;20498;-79
2022/10/19 06:37:30;;;;;;;17.13;10.10;;;;;;;22.40;52.48;100907.69;20912823;28;20128;-78
2022/10/19 06:47:31;;;;;;;17.83;9.65;;;;;;;22.43;53.04;100915.34;20901098;28;20107;-79
2022/10/19 06:57:32;;;;;;;14.65;9.63;;;;;;;22.43;53.19;100925.09;20892068;28;20044;-78
2022/10/19 07:07:33;;;;;;;15.65;9.90;;;;;;;22.41;53.05;100934.91;20892390;28;20508;-78
2022/10/19 07:17:33;;;;;;;14.98;9.50;;;;;;;22.44;53.32;100955.78;20882184;27;20438;-73
2022/10/19 07:27:35;;;;;;;14.35;9.73;;;;;;;22.43;53.35;100968.13;20888359;28;20117;-72
2022/10/19 07:37:36;;;;;;;14.38;9.38;;;;;;;22.46;53.65;100970.56;20888596;28;20044;-74
2022/10/19 07:47:36;;;;;;;23.17;9.68;;;;;;;22.42;52.97;100966.44;20904521;27;20041;-74
2022/10/19 07:57:36;;;;;;;16.92;8.98;;;;;;;22.45;52.82;100960.09;20913122;27;20135;-74
2022/10/19 08:07:38;;;;;;;17.30;8.57;;;;;;;22.44;53.45;100953.97;20916854;28;20127;-74
2022/10/19 08:17:39;;;;;;;16.20;8.68;;;;;;;22.47;53.17;100955.56;20912641;28;20399;-74
2022/10/19 08:27:39;;;;;;;17.42;8.25;;;;;;;22.47;53.08;100960.81;20912803;28;20041;-74
2022/10/19 08:37:40;;;;;;;11.70;7.85;;;;;;;22.49;53.26;100958.94;20920182;28;20037;-73
2022/10/19 08:47:56;;;;;;;10.98;7.78;;;;;;;22.52;53.41;100959.53;20918299;28;20044;-73
2022/10/19 08:58:12;;;;;;;12.57;7.90;;;;;;;22.55;53.46;100961.09;20918907;28;20048;-74
2022/10/19 09:08:13;;;;;;;12.80;8.00;;;;;;;22.59;53.61;100949.34;20918011;28;20121;-73
2022/10/19 09:18:21;;;;;;;11.38;7.40;;;;;;;22.63;53.60;100948.19;20911940;28;20140;-73
2022/10/19 09:28:42;;;;;;;10.40;7.15;;;;;;;22.66;53.45;100953.22;20916829;28;20047;-73
2022/10/19 09:38:42;;;;;;;11.80;7.22;;;;;;;22.73;53.66;100956.25;20918018;28;20032;-73
2022/10/19 09:48:52;;;;;;;9.23;6.82;;;;;;;22.79;53.56;100968.13;20915370;28;20052;-73
2022/10/19 09:58:57;;;;;;;8.98;6.70;;;;;;;22.82;53.42;100952.06;20915351;28;20043;-73
2022/10/19 10:08:58;;;;;;;10.13;6.50;;;;;;;22.81;53.33;100938.06;20908316;28;20086;-73
2022/10/19 10:19:06;;;;;;;8.48;6.63;;;;;;;22.85;53.33;100936.00;20910960;28;20041;-73
2022/10/19 10:29:25;;;;;;;7.32;6.00;;;;;;;22.90;53.41;100918.03;20907444;28;20471;-73
2022/10/19 10:39:27;;;;;;;7.70;6.07;;;;;;;22.96;53.42;100896.41;20906746;28;20407;-73
2022/10/19 10:49:33;;;;;;;6.30;5.13;;;;;;;23.02;52.88;100889.81;20913864;28;20880;-73
2022/10/19 11:00:06;;;;;;;6.28;5.13;;;;;;;23.11;53.01;100875.88;20916582;28;20041;-73
2022/10/19 11:10:50;;;;;;;7.60;5.55;;;;;;;23.21;52.86;100869.94;20900091;28;20044;-74
2022/10/19 11:21:05;;;;;;;7.40;6.00;;;;;;;23.30;52.78;100856.84;20926612;28;20102;-73
2022/10/19 11:31:21;;;;;;;8.55;6.60;;;;;;;23.37;52.53;100843.97;20922090;28;20129;-73
2022/10/19 11:41:28;;;;;;;7.75;6.07;;;;;;;23.47;52.14;100839.63;20927624;28;20053;-73
2022/10/19 11:51:56;;;;;;;18.08;7.68;;;;;;;23.56;52.08;100839.84;20924529;28;20044;-73
2022/10/19 12:02:18;;;;;;;12.88;7.25;;;;;;;23.66;52.10;100844.25;20913467;28;20055;-73
2022/10/19 12:12:43;;;;;;;12.77;8.70;;;;;;;23.74;51.49;100827.78;20915222;28;20044;-73
2022/10/19 12:22:44;;;;;;;20.98;7.78;;;;;;;23.82;51.57;100824.50;20923480;28;20116;-73
2022/10/19 12:32:48;;;;;;;13.13;7.97;;;;;;;23.91;51.24;100814.97;20915610;28;20069;-72
2022/10/19 12:42:57;;;;;;;10.32;6.82;;;;;;;23.98;51.03;100792.38;20910480;28;20517;-71
2022/10/19 12:52:58;;;;;;;9.00;6.28;;;;;;;24.04;50.53;100796.34;20900108;28;20146;-73
2022/10/19 13:03:19;;;;;;;9.52;5.25;;;;;;;24.02;46.27;100777.09;20893744;28;20087;-72
2022/10/19 13:13:49;;;;;;;;;;;;;;;23.97;43.59;100782.75;20908470;28;20048;-72
2022/10/19 13:23:50;;;;;;;4.40;2.00;;;;;;;23.95;38.83;100768.84;20908654;28;19928;-71
2022/10/19 13:33:51;;;;;;;2.60;2.03;;;;;;;23.96;37.72;100781.94;20911272;27;20434;-71
2022/10/19 13:44:21;;;;;;;6.63;1.93;;;;;;;23.93;35.62;100784.81;20908113;28;20044;-71
2022/10/19 13:54:37;;;;;;;3.40;1.52;;;;;;;23.91;38.53;100783.25;20892156;27;20382;-71
2022/10/19 14:05:00;;;;;;;4.53;1.52;;;;;;;23.88;35.85;100786.16;20895096;28;20132;-70
2022/10/19 14:15:22;;;;;;;3.22;1.63;;;;;;;23.83;34.27;100786.53;20894337;28;20040;-70
2022/10/19 14:25:26;;;;;;;4.28;2.03;;;;;;;23.77;35.19;100776.47;20888149;28;20056;-70
2022/10/19 14:35:30;;;;;;;11.48;2.00;;;;;;;23.61;32.09;100788.28;20890450;28;20032;-71
2022/10/19 14:45:31;;;;;;;3.70;2.10;;;;;;;23.34;31.30;100786.09;20897038;28;20043;-71
2022/10/19 14:55:37;;;;;;;2.58;2.05;;;;;;;23.07;31.59;100779.38;20904665;28;20037;-70
2022/10/19 15:05:47;;;;;;;6.15;2.42;;;;;;;22.86;31.81;100787.16;20906143;28;20133;-72
2022/10/19 15:15:51;;;;;;;4.63;1.92;;;;;;;22.66;30.98;100775.53;20896600;27;20067;-70
2022/10/19 15:26:02;;;;;;;5.13;1.90;;;;;;;22.48;31.20;100789.19;20901552;28;20048;-71
2022/10/19 15:36:08;;;;;;;5.50;1.75;;;;;;;22.40;32.08;100786.31;20884814;28;20147;-70
2022/10/19 15:46:12;;;;;;;6.75;1.80;;;;;;;22.50;34.32;100797.81;20883346;28;21633;-71
2022/10/19 15:56:13;;;;;;;2.58;1.67;;;;;;;22.57;35.54;100808.78;20886582;28;20514;-71
2022/10/19 16:06:15;;;;;;;15.63;2.35;;;;;;;22.61;37.17;100841.03;20909016;28;20356;-70
2022/10/19 16:16:30;;;;;;;7.60;1.70;;;;;;;22.63;38.26;100833.84;20893694;27;20033;-72
2022/10/19 16:26:31;;;;;;;8.75;1.92;;;;;;;22.66;40.05;100828.34;20897425;28;20131;-72
2022/10/19 16:36:31;;;;;;;8.15;2.00;;;;;;;22.71;41.30;100848.13;20907268;28;20052;-71
2022/10/19 16:46:32;;;;;;;4.40;2.13;;;;;;;22.74;41.81;100876.09;20900505;27;20063;-71
2022/10/19 16:56:34;;;;;;;3.67;2.08;;;;;;;22.73;42.50;100858.59;20897527;28;20399;-71
2022/10/19 17:06:35;;;;;;;4.10;1.83;;;;;;;22.70;42.44;100878.13;20881225;28;20032;-72
2022/10/19 17:16:37;;;;;;;13.13;2.30;;;;;;;22.76;43.71;100890.00;20897055;28;20519;-72
2022/10/19 17:26:40;;;;;;;34.67;13.63;;;;;;;22.76;44.01;100903.22;20888383;28;20075;-71
2022/10/19 17:36:43;;;;;;;31.73;10.52;;;;;;;22.76;44.12;100913.78;20891596;28;20064;-72
2022/10/19 17:46:46;;;;;;;25.27;8.60;;;;;;;22.76;44.36;100916.41;20893302;28;20047;-71
2022/10/19 17:56:46;;;;;;;19.30;8.00;;;;;;;22.79;45.71;100932.03;20891376;28;20048;-69
2022/10/19 18:06:47;;;;;;;21.83;7.00;;;;;;;22.79;45.86;100923.25;20892417;28;20996;-70
2022/10/19 18:16:49;;;;;;;15.95;6.80;;;;;;;22.79;46.21;100947.88;20889351;28;20040;-70
2022/10/19 18:26:50;;;;;;;16.17;5.87;;;;;;;22.80;46.43;100961.91;20887904;28;20521;-73
2022/10/19 18:36:51;;;;;;;12.82;5.03;;;;;;;22.79;46.61;100941.72;20894760;28;20110;-71
2022/10/19 18:46:51;;;;;;;18.00;5.30;;;;;;;22.78;46.62;100972.59;20884629;27;20052;-71
2022/10/19 18:56:52;;;;;;;17.42;4.57;;;;;;;22.76;46.69;100992.97;20890691;28;20502;-70
2022/10/19 19:06:53;;;;;;;15.27;4.55;;;;;;;22.77;47.39;100999.13;20887851;27;20043;-71
2022/10/19 19:16:54;;;;;;;13.25;4.85;;;;;;;22.76;47.27;101010.63;20899669;28;20040;-70
2022/10/19 19:26:56;;;;;;;11.20;4.15;;;;;;;22.69;45.76;100995.25;20877912;27;20052;-71
2022/10/19 19:36:57;;;;;;;11.03;4.07;;;;;;;22.66;46.56;101013.09;20873760;28;20500;-71
2022/10/19 19:46:59;;;;;;;10.82;4.63;;;;;;;22.63;46.54;101024.75;20902531;27;20161;-71
2022/10/19 19:57:00;;;;;;;7.07;3.83;;;;;;;22.61;46.89;101041.66;20902795;28;20403;-73
2022/10/19 20:07:00;;;;;;;9.13;3.70;;;;;;;22.57;47.31;101048.94;20901632;28;20097;-71
2022/10/19 20:17:01;;;;;;;7.70;3.58;;;;;;;22.54;47.59;101050.00;20911081;28;20537;-71
2022/10/19 20:27:01;;;;;;;7.60;4.07;;;;;;;22.51;47.58;101071.34;20896825;28;20040;-71
2022/10/19 20:37:02;;;;;;;5.60;3.15;;;;;;;22.52;47.68;101086.22;20909227;28;20459;-71
2022/10/19 20:47:02;;;;;;;9.25;3.45;;;;;;;22.51;48.03;101088.97;20897080;28;20029;-71
2022/10/19 20:57:09;;;;;;;7.30;3.40;;;;;;;22.49;48.23;101096.16;20906020;28;20158;-73
2022/10/19 21:07:10;;;;;;;6.78;2.80;;;;;;;22.47;48.38;101096.28;20911034;28;20056;-71
2022/10/19 21:17:10;;;;;;;5.38;3.40;;;;;;;22.47;48.03;101103.34;20905299;28;20049;-71
2022/10/19 21:27:13;;;;;;;6.03;3.28;;;;;;;22.44;48.08;101095.66;20907311;28;20048;-72
2022/10/19 21:37:13;;;;;;;6.60;3.08;;;;;;;22.42;48.28;101108.94;20900562;28;20056;-72
2022/10/19 21:47:13;;;;;;;4.40;2.97;;;;;;;22.39;48.05;101106.53;20892185;28;20041;-71
2022/10/19 21:57:14;;;;;;;5.07;2.80;;;;;;;22.37;48.19;101127.72;20892762;28;20400;-71
2022/10/19 22:07:14;;;;;;;6.22;2.95;;;;;;;22.36;48.60;101123.41;20896603;28;20064;-71
2022/10/19 22:17:14;;;;;;;4.82;2.80;;;;;;;22.35;48.30;101113.78;20900157;28;20408;-73
2022/10/19 22:27:15;;;;;;;5.00;2.80;;;;;;;22.34;48.67;101106.81;20901734;28;20072;-70
2022/10/19 22:37:15;;;;;;;4.82;2.80;;;;;;;22.33;49.04;101112.22;20895115;28;20044;-70
2022/10/19 22:47:16;;;;;;;5.05;2.60;;;;;;;22.32;48.98;101107.88;20885831;28;20411;-70
2022/10/19 22:57:16;;;;;;;3.28;2.55;;;;;;;22.30;49.17;101117.69;20900820;28;20119;-70
2022/10/19 23:07:16;;;;;;;4.55;2.78;;;;;;;22.28;49.20;101117.81;20891751;28;20126;-70
2022/10/19 23:17:17;;;;;;;4.13;2.47;;;;;;;22.29;48.98;101123.91;20892501;28;20053;-70
2022/10/19 23:27:20;;;;;;;4.03;2.13;;;;;;;22.28;49.05;101149.47;20891556;27;20033;-70
2022/10/19 23:37:20;;;;;;;2.95;2.25;;;;;;;22.27;49.03;101150.41;20889847;28;20051;-70
2022/10/19 23:47:20;;;;;;;2.85;2.00;;;;;;;22.25;49.41;101151.47;20887848;28;20048;-70
2022/10/19 23:57:21;;;;;;;4.15;2.30;;;;;;;22.22;49.46;101161.28;20884402;28;20052;-70
